Time;durP1;ratioP1;P1;durP2;ratioP2;P2;SDS_P1;SDS_P2;PMS_P1;PMS_P2;Temp;Humidity;BMP_temperature;BMP_pressure;BME280_temperature;BME280_humidity;BME280_pressure;Samples;Min_cycle;Max_cycle;Signal;HPM_P1;HPM_P2
2023/05/03 00:01:12;;;;;;;;;30.00;27.25;;;;;;;;6311646;22;8776;-72
2023/05/03 00:03:38;;;;;;;;;20.75;19.50;;;;;;;;6310394;22;8744;-73
2023/05/03 00:06:13;;;;;;;;;33.50;30.25;;;;;;;;6310074;22;8725;-73
2023/05/03 00:08:38;;;;;;;;;24.75;24.75;;;;;;;;6282005;22;11456;-72
2023/05/03 00:11:03;;;;;;;;;35.25;29.75;;;;;;;;6310431;22;11454;-71
2023/05/03 00:13:29;;;;;;;;;32.75;29.00;;;;;;;;6310319;22;8768;-73
2023/05/03 00:15:54;;;;;;;;;30.50;26.75;;;;;;;;6310036;22;8737;-72
2023/05/03 00:18:19;;;;;;;;;23.25;23.25;;;;;;;;6310109;22;9598;-73
2023/05/03 00:20:44;;;;;;;;;25.50;24.50;;;;;;;;6310378;22;8795;-72
2023/05/03 00:23:10;;;;;;;;;35.50;34.00;;;;;;;;6309939;22;8764;-72
2023/05/03 00:25:35;;;;;;;;;31.00;30.00;;;;;;;;6282151;22;8776;-73
2023/05/03 00:28:00;;;;;;;;;32.50;24.50;;;;;;;;6310022;22;8795;-71
2023/05/03 00:30:25;;;;;;;;;24.00;24.00;;;;;;;;6310410;22;8756;-71
2023/05/03 00:32:51;;;;;;;;;27.75;26.00;;;;;;;;6309492;22;8753;-73
2023/05/03 00:35:16;;;;;;;;;25.25;22.50;;;;;;;;6309729;22;8879;-72
2023/05/03 00:37:41;;;;;;;;;31.50;31.50;;;;;;;;6309961;22;9031;-72
2023/05/03 00:40:07;;;;;;;;;30.25;25.50;;;;;;;;6310120;22;8760;-71
2023/05/03 00:42:33;;;;;;;;;31.25;31.25;;;;;;;;6309731;22;8724;-73
2023/05/03 00:44:58;;;;;;;;;28.75;27.25;;;;;;;;6309817;22;11490;-73
2023/05/03 00:47:23;;;;;;;;;35.25;31.75;;;;;;;;6311030;22;8803;-73
2023/05/03 00:49:48;;;;;;;;;28.25;24.50;;;;;;;;6311420;22;9540;-73
2023/05/03 00:52:15;;;;;;;;;32.75;26.75;;;;;;;;6311285;22;8816;-73
2023/05/03 00:54:40;;;;;;;;;26.00;25.25;;;;;;;;6310910;22;8724;-73
2023/05/03 00:57:06;;;;;;;;;26.00;20.75;;;;;;;;6282683;22;11536;-72
2023/05/03 00:59:33;;;;;;;;;29.75;29.25;;;;;;;;6311434;22;8752;-73
2023/05/03 01:01:58;;;;;;;;;27.00;24.00;;;;;;;;6311313;22;8736;-73
2023/05/03 01:04:23;;;;;;;;;35.25;31.75;;;;;;;;6311334;22;11458;-73
2023/05/03 01:06:57;;;;;;;;;24.00;24.00;;;;;;;;6310704;22;8882;-73
2023/05/03 01:09:36;;;;;;;;;29.25;26.75;;;;;;;;6311654;22;8763;-72
2023/05/03 01:12:14;;;;;;;;;25.25;25.25;;;;;;;;6311053;22;11408;-73
2023/05/03 01:14:39;;;;;;;;;29.50;25.25;;;;;;;;6283392;22;11376;-72
2023/05/03 01:17:10;;;;;;;;;24.00;22.60;;;;;;;;6311171;22;11463;-73
2023/05/03 01:19:39;;;;;;;;;27.50;25.75;;;;;;;;6311188;22;9513;-72
2023/05/03 01:22:23;;;;;;;;;28.25;27.00;;;;;;;;6309839;22;11604;-72
2023/05/03 01:24:52;;;;;;;;;23.25;22.25;;;;;;;;6310946;22;11415;-73
2023/05/03 01:27:18;;;;;;;;;19.75;16.25;;;;;;;;6282724;22;11403;-73
2023/05/03 01:29:43;;;;;;;;;21.25;20.00;;;;;;;;6310713;22;11482;-72
2023/05/03 01:32:13;;;;;;;;;22.25;20.50;;;;;;;;6309688;22;8977;-72
2023/05/03 01:34:53;;;;;;;;;19.25;15.25;;;;;;;;6310872;22;8720;-71
2023/05/03 01:37:20;;;;;;;;;21.75;20.75;;;;;;;;6311729;22;11408;-72
2023/05/03 01:40:00;;;;;;;;;21.00;18.25;;;;;;;;6312893;22;11433;-72
2023/05/03 01:42:26;;;;;;;;;15.75;15.25;;;;;;;;6312650;22;11362;-72
2023/05/03 01:44:52;;;;;;;;;27.25;24.75;;;;;;;;6312830;22;11387;-72
2023/05/03 01:47:17;;;;;;;;;21.75;21.50;;;;;;;;6312661;22;8721;-72
2023/05/03 01:49:42;;;;;;;;;28.50;24.25;;;;;;;;6312743;22;11388;-71
2023/05/03 01:52:08;;;;;;;;;25.75;22.00;;;;;;;;6312761;22;8760;-72
2023/05/03 01:54:33;;;;;;;;;19.25;17.50;;;;;;;;6312764;22;8740;-72
2023/05/03 01:56:58;;;;;;;;;27.00;24.25;;;;;;;;6311814;22;8802;-72
2023/05/03 01:59:23;;;;;;;;;26.00;22.00;;;;;;;;6312182;22;8768;-72
2023/05/03 02:01:48;;;;;;;;;26.00;23.50;;;;;;;;6312592;22;8740;-72
2023/05/03 02:04:13;;;;;;;;;17.50;17.50;;;;;;;;6312820;22;9601;-72
2023/05/03 02:06:39;;;;;;;;;23.25;22.00;;;;;;;;6312887;22;8740;-72
2023/05/03 02:09:04;;;;;;;;;21.75;20.25;;;;;;;;6312465;22;8888;-71
2023/05/03 02:11:29;;;;;;;;;25.00;24.00;;;;;;;;6312928;22;8792;-71
2023/05/03 02:13:55;;;;;;;;;22.00;21.00;;;;;;;;6312427;22;8854;-71
2023/05/03 02:16:20;;;;;;;;;26.00;22.75;;;;;;;;6313005;22;8736;-71
2023/05/03 02:18:45;;;;;;;;;29.25;24.25;;;;;;;;6311884;22;8798;-72
2023/05/03 02:21:11;;;;;;;;;19.00;18.00;;;;;;;;6312637;22;8791;-72
2023/05/03 02:23:37;;;;;;;;;17.00;17.00;;;;;;;;6312693;22;8716;-71
2023/05/03 02:26:02;;;;;;;;;24.50;21.75;;;;;;;;6312760;22;11457;-71
2023/05/03 02:28:27;;;;;;;;;27.00;24.25;;;;;;;;6312253;22;8764;-71
2023/05/03 02:30:52;;;;;;;;;24.50;23.00;;;;;;;;6312917;22;8741;-71
2023/05/03 02:33:18;;;;;;;;;23.50;23.00;;;;;;;;6311864;22;9488;-71
2023/05/03 02:35:43;;;;;;;;;26.00;23.75;;;;;;;;6312214;22;8756;-71
2023/05/03 02:38:08;;;;;;;;;26.75;23.00;;;;;;;;6284466;22;8806;-71
2023/05/03 02:40:33;;;;;;;;;23.75;22.25;;;;;;;;6312665;22;8721;-71
2023/05/03 02:42:59;;;;;;;;;25.50;21.75;;;;;;;;6312504;22;8745;-72
2023/05/03 02:45:24;;;;;;;;;20.00;20.00;;;;;;;;6312279;22;8762;-71
2023/05/03 02:47:49;;;;;;;;;28.00;26.25;;;;;;;;6312395;22;8760;-71
2023/05/03 02:50:15;;;;;;;;;25.75;24.75;;;;;;;;6312689;22;8755;-71
2023/05/03 02:52:40;;;;;;;;;21.75;21.75;;;;;;;;6284565;22;9500;-71
2023/05/03 02:55:05;;;;;;;;;25.25;25.25;;;;;;;;6312353;22;9098;-71
2023/05/03 02:57:31;;;;;;;;;26.25;24.00;;;;;;;;6312332;22;8822;-71
2023/05/03 02:59:56;;;;;;;;;21.75;20.25;;;;;;;;6312272;22;8741;-71
2023/05/03 03:02:21;;;;;;;;;28.75;26.75;;;;;;;;6311970;22;8748;-71
2023/05/03 03:04:46;;;;;;;;;23.50;22.00;;;;;;;;6312073;22;9501;-71
2023/05/03 03:07:12;;;;;;;;;23.75;21.75;;;;;;;;6312720;22;8768;-72
2023/05/03 03:09:37;;;;;;;;;26.75;18.25;;;;;;;;6312336;22;8728;-71
2023/05/03 03:12:02;;;;;;;;;29.00;27.25;;;;;;;;6284713;22;8788;-71
2023/05/03 03:14:28;;;;;;;;;25.25;24.50;;;;;;;;6284392;22;8872;-71
2023/05/03 03:16:53;;;;;;;;;22.75;21.00;;;;;;;;6311944;22;8748;-71
2023/05/03 03:19:18;;;;;;;;;26.75;25.00;;;;;;;;6312459;22;8794;-71
2023/05/03 03:21:43;;;;;;;;;30.00;25.00;;;;;;;;6313047;22;8909;-71
2023/05/03 03:24:08;;;;;;;;;21.50;18.50;;;;;;;;6312277;22;8728;-71
2023/05/03 03:26:34;;;;;;;;;23.25;23.25;;;;;;;;6312367;22;8760;-71
2023/05/03 03:28:59;;;;;;;;;25.00;25.00;;;;;;;;6284098;22;8763;-71
2023/05/03 03:31:25;;;;;;;;;26.00;25.25;;;;;;;;6311720;22;8823;-71
2023/05/03 03:33:50;;;;;;;;;29.50;23.00;;;;;;;;6312137;22;8764;-71
2023/05/03 03:36:15;;;;;;;;;23.75;19.75;;;;;;;;6284391;22;8768;-71
2023/05/03 03:38:40;;;;;;;;;20.25;20.25;;;;;;;;6284140;22;8780;-70
2023/05/03 03:41:06;;;;;;;;;34.75;25.75;;;;;;;;6312449;22;8740;-70
2023/05/03 03:43:31;;;;;;;;;25.00;22.75;;;;;;;;6284132;22;8767;-71
2023/05/03 03:45:56;;;;;;;;;23.00;23.00;;;;;;;;6312123;22;8794;-71
2023/05/03 03:48:22;;;;;;;;;24.75;22.75;;;;;;;;6312126;22;8764;-70
2023/05/03 03:50:47;;;;;;;;;26.00;24.25;;;;;;;;6312332;22;8810;-71
2023/05/03 03:53:12;;;;;;;;;30.50;25.00;;;;;;;;6283968;22;8764;-71
2023/05/03 03:55:37;;;;;;;;;25.00;24.75;;;;;;;;6312341;22;8767;-71
2023/05/03 03:58:03;;;;;;;;;31.75;28.00;;;;;;;;6312123;22;9544;-71
2023/05/03 04:00:28;;;;;;;;;28.50;25.25;;;;;;;;6311132;22;8786;-71
2023/05/03 04:02:53;;;;;;;;;24.75;23.25;;;;;;;;6311201;22;9552;-71
2023/05/03 04:05:18;;;;;;;;;24.50;23.75;;;;;;;;6312028;22;8755;-71
2023/05/03 04:07:43;;;;;;;;;33.00;27.00;;;;;;;;6311966;22;8764;-71
2023/05/03 04:10:09;;;;;;;;;29.00;26.75;;;;;;;;6284090;22;9419;-71
2023/05/03 04:12:34;;;;;;;;;33.50;28.00;;;;;;;;6311777;22;8760;-71
2023/05/03 04:14:59;;;;;;;;;28.00;26.00;;;;;;;;6311326;22;8764;-71
2023/05/03 04:17:24;;;;;;;;;28.50;27.00;;;;;;;;6311803;22;8768;-71
2023/05/03 04:19:50;;;;;;;;;29.25;23.50;;;;;;;;6312046;22;9539;-72
2023/05/03 04:22:15;;;;;;;;;22.25;22.00;;;;;;;;6313056;22;8732;-71
2023/05/03 04:24:42;;;;;;;;;22.50;20.25;;;;;;;;6313301;22;8873;-72
2023/05/03 04:27:08;;;;;;;;;30.75;25.25;;;;;;;;6285384;22;8769;-71
2023/05/03 04:29:33;;;;;;;;;25.00;19.00;;;;;;;;6312688;22;11451;-72
2023/05/03 04:32:00;;;;;;;;;36.50;26.75;;;;;;;;6312523;22;8872;-71
2023/05/03 04:34:25;;;;;;;;;26.00;25.00;;;;;;;;6313275;22;8788;-71
2023/05/03 04:36:50;;;;;;;;;26.00;24.50;;;;;;;;6313170;22;11457;-71
2023/05/03 04:39:15;;;;;;;;;28.50;26.50;;;;;;;;6313428;22;8867;-71
2023/05/03 04:41:41;;;;;;;;;23.00;21.25;;;;;;;;6313181;22;8752;-71
2023/05/03 04:44:06;;;;;;;;;28.25;25.25;;;;;;;;6312825;22;8837;-71
2023/05/03 04:46:32;;;;;;;;;27.50;24.75;;;;;;;;6284803;22;9441;-71
2023/05/03 04:48:57;;;;;;;;;25.50;22.50;;;;;;;;6313231;22;8764;-72
2023/05/03 04:51:22;;;;;;;;;23.00;21.00;;;;;;;;6313442;22;8778;-71
2023/05/03 04:53:47;;;;;;;;;31.75;27.50;;;;;;;;6313339;22;8794;-71
2023/05/03 04:56:13;;;;;;;;;37.25;30.75;;;;;;;;6312801;22;8764;-71
2023/05/03 04:58:38;;;;;;;;;40.75;29.50;;;;;;;;6312786;22;9528;-72
2023/05/03 05:01:03;;;;;;;;;27.00;26.50;;;;;;;;6284931;22;8932;-71
2023/05/03 05:03:30;;;;;;;;;32.50;29.25;;;;;;;;6312845;22;8764;-71
2023/05/03 05:05:55;;;;;;;;;25.25;22.00;;;;;;;;6285151;22;8736;-71
2023/05/03 05:08:20;;;;;;;;;26.50;25.75;;;;;;;;6312674;22;11440;-71
2023/05/03 05:10:45;;;;;;;;;26.50;24.50;;;;;;;;6313091;22;9374;-71
2023/05/03 05:13:11;;;;;;;;;30.00;25.00;;;;;;;;6312753;22;8773;-71
2023/05/03 05:15:36;;;;;;;;;29.25;25.50;;;;;;;;6284774;22;8846;-71
2023/05/03 05:18:01;;;;;;;;;28.75;24.75;;;;;;;;6313090;22;8796;-71
2023/05/03 05:20:26;;;;;;;;;28.25;27.75;;;;;;;;6313127;22;8752;-71
2023/05/03 05:22:51;;;;;;;;;25.75;23.75;;;;;;;;6311932;22;8748;-71
2023/05/03 05:25:17;;;;;;;;;13.75;10.25;;;;;;;;6311038;22;8760;-71
2023/05/03 05:27:42;;;;;;;;;32.75;30.75;;;;;;;;6310865;22;8774;-71
2023/05/03 05:30:07;;;;;;;;;24.25;18.50;;;;;;;;6313102;22;8901;-71
2023/05/03 05:32:33;;;;;;;;;32.00;27.75;;;;;;;;6311671;22;8795;-71
2023/05/03 05:34:58;;;;;;;;;22.75;20.50;;;;;;;;6313149;22;8794;-71
2023/05/03 05:37:24;;;;;;;;;28.00;25.50;;;;;;;;6312858;22;8818;-71
2023/05/03 05:39:49;;;;;;;;;30.50;29.25;;;;;;;;6312793;22;8704;-71
2023/05/03 05:42:15;;;;;;;;;26.75;19.75;;;;;;;;6312412;22;12429;-71
2023/05/03 05:44:40;;;;;;;;;34.75;27.00;;;;;;;;6312739;22;8843;-71
2023/05/03 05:47:05;;;;;;;;;29.25;27.25;;;;;;;;6284512;22;8849;-71
2023/05/03 05:49:31;;;;;;;;;28.00;26.00;;;;;;;;6312459;22;8740;-71
2023/05/03 05:51:56;;;;;;;;;28.50;24.00;;;;;;;;6312621;22;8732;-71
2023/05/03 05:54:21;;;;;;;;;29.50;29.50;;;;;;;;6312764;22;8732;-71
2023/05/03 05:56:46;;;;;;;;;24.50;23.50;;;;;;;;6312415;22;8740;-71
2023/05/03 05:59:11;;;;;;;;;28.00;21.25;;;;;;;;6312667;22;8752;-71
2023/05/03 06:01:40;;;;;;;;;28.75;26.00;;;;;;;;6312708;22;8838;-71
2023/05/03 06:04:05;;;;;;;;;33.50;28.75;;;;;;;;6312461;22;8716;-71
2023/05/03 06:06:31;;;;;;;;;25.75;22.75;;;;;;;;6312577;22;11500;-72
2023/05/03 06:08:56;;;;;;;;;24.25;23.25;;;;;;;;6312240;22;8771;-71
2023/05/03 06:11:21;;;;;;;;;28.00;27.50;;;;;;;;6312138;22;8794;-71
2023/05/03 06:13:46;;;;;;;;;31.50;28.00;;;;;;;;6284384;22;8748;-71
2023/05/03 06:16:12;;;;;;;;;26.75;22.75;;;;;;;;6312618;22;8794;-72
2023/05/03 06:18:37;;;;;;;;;32.00;26.25;;;;;;;;6312780;22;8776;-71
2023/05/03 06:21:03;;;;;;;;;32.00;32.00;;;;;;;;6284763;22;8745;-71
2023/05/03 06:23:28;;;;;;;;;39.50;34.75;;;;;;;;6312239;22;8736;-71
2023/05/03 06:25:53;;;;;;;;;22.00;19.75;;;;;;;;6312032;22;8786;-71
2023/05/03 06:28:18;;;;;;;;;26.00;23.25;;;;;;;;6312537;22;8783;-72
2023/05/03 06:30:50;;;;;;;;;30.00;28.00;;;;;;;;6312136;22;8752;-71
2023/05/03 06:33:15;;;;;;;;;31.25;27.25;;;;;;;;6310223;22;9607;-71
2023/05/03 06:35:41;;;;;;;;;30.00;25.25;;;;;;;;6310251;22;11435;-71
2023/05/03 06:38:07;;;;;;;;;29.50;29.00;;;;;;;;6310274;22;8873;-71
2023/05/03 06:40:32;;;;;;;;;28.25;25.75;;;;;;;;6310101;22;8863;-72
2023/05/03 06:42:57;;;;;;;;;31.00;28.00;;;;;;;;6310065;22;11559;-72
2023/05/03 06:45:23;;;;;;;;;28.50;27.50;;;;;;;;6282204;22;8772;-71
2023/05/03 06:47:49;;;;;;;;;30.00;29.25;;;;;;;;6310528;22;8748;-72
2023/05/03 06:50:14;;;;;;;;;21.75;21.50;;;;;;;;6310453;22;9472;-72
2023/05/03 06:52:40;;;;;;;;;27.00;27.00;;;;;;;;6310355;22;9500;-72
2023/05/03 06:55:06;;;;;;;;;30.50;27.25;;;;;;;;6310280;22;8868;-71
2023/05/03 06:57:31;;;;;;;;;30.00;25.75;;;;;;;;6281734;22;9515;-72
2023/05/03 06:59:57;;;;;;;;;28.25;26.75;;;;;;;;6310136;22;11517;-72
2023/05/03 07:02:22;;;;;;;;;38.25;27.25;;;;;;;;6310047;22;8760;-72
2023/05/03 07:04:48;;;;;;;;;25.50;24.75;;;;;;;;6309860;22;8744;-72
2023/05/03 07:07:14;;;;;;;;;26.00;26.00;;;;;;;;6309960;22;8760;-72
2023/05/03 07:09:39;;;;;;;;;29.50;25.25;;;;;;;;6309603;22;8835;-72
2023/05/03 07:12:05;;;;;;;;;29.25;27.50;;;;;;;;6282069;22;11574;-72
2023/05/03 07:14:30;;;;;;;;;31.25;24.50;;;;;;;;6309929;22;9531;-72
2023/05/03 07:16:55;;;;;;;;;37.75;28.75;;;;;;;;6281969;22;8759;-72
2023/05/03 07:19:20;;;;;;;;;30.25;23.25;;;;;;;;6309873;22;9616;-72
2023/05/03 07:21:45;;;;;;;;;26.00;26.00;;;;;;;;6310339;22;8774;-72
2023/05/03 07:24:11;;;;;;;;;36.75;32.00;;;;;;;;6309454;22;8764;-72
2023/05/03 07:26:37;;;;;;;;;28.25;26.25;;;;;;;;6310048;22;9488;-72
2023/05/03 07:29:02;;;;;;;;;33.50;30.25;;;;;;;;6309595;22;8866;-72
2023/05/03 07:31:27;;;;;;;;;34.50;28.50;;;;;;;;6262652;22;1084618;-72
2023/05/03 07:33:52;;;;;;;;;29.50;26.50;;;;;;;;6312002;22;8756;-72
2023/05/03 07:36:17;;;;;;;;;29.75;27.25;;;;;;;;6311909;22;8752;-72
2023/05/03 07:38:42;;;;;;;;;23.75;22.00;;;;;;;;6283408;22;9006;-72
2023/05/03 07:41:09;;;;;;;;;27.50;23.25;;;;;;;;6312560;22;8752;-72
2023/05/03 07:43:34;;;;;;;;;25.25;23.50;;;;;;;;6311859;22;8729;-72
2023/05/03 07:45:59;;;;;;;;;27.25;26.25;;;;;;;;6311845;22;11527;-72
2023/05/03 07:48:25;;;;;;;;;33.00;30.75;;;;;;;;6311598;22;8779;-72
2023/05/03 07:50:50;;;;;;;;;30.00;28.00;;;;;;;;6311718;22;8867;-72
2023/05/03 07:53:15;;;;;;;;;28.50;27.00;;;;;;;;6311877;22;8791;-72
2023/05/03 07:55:41;;;;;;;;;25.50;25.25;;;;;;;;6312569;22;8801;-71
2023/05/03 07:58:07;;;;;;;;;31.00;24.25;;;;;;;;6313064;22;8760;-72
2023/05/03 08:00:33;;;;;;;;;25.75;22.75;;;;;;;;6312976;22;8705;-73
2023/05/03 08:02:58;;;;;;;;;26.25;25.00;;;;;;;;6312893;22;11464;-72
2023/05/03 08:05:23;;;;;;;;;27.25;24.50;;;;;;;;6312422;22;8752;-72
2023/05/03 08:07:49;;;;;;;;;32.75;31.00;;;;;;;;6312103;22;8783;-75
2023/05/03 08:10:14;;;;;;;;;29.50;27.75;;;;;;;;6312961;22;9462;-74
2023/05/03 08:12:40;;;;;;;;;29.50;28.00;;;;;;;;6313447;22;9500;-71
2023/05/03 08:15:05;;;;;;;;;32.50;29.50;;;;;;;;6313191;22;8736;-74
2023/05/03 08:17:31;;;;;;;;;25.75;22.50;;;;;;;;6313056;22;8883;-74
2023/05/03 08:19:56;;;;;;;;;28.75;27.25;;;;;;;;6313435;22;8716;-74
2023/05/03 08:22:24;;;;;;;;;32.25;30.75;;;;;;;;6313055;22;9536;-75
2023/05/03 08:24:49;;;;;;;;;34.25;29.50;;;;;;;;6312674;22;8869;-72
2023/05/03 08:27:14;;;;;;;;;33.25;30.75;;;;;;;;6310550;22;11473;-73
2023/05/03 08:29:39;;;;;;;;;32.75;30.00;;;;;;;;6311246;22;9517;-73
2023/05/03 08:32:05;;;;;;;;;40.00;34.75;;;;;;;;6310716;22;8756;-74
2023/05/03 08:34:30;;;;;;;;;19.25;18.50;;;;;;;;6311695;22;8732;-71
2023/05/03 08:36:56;;;;;;;;;31.00;28.75;;;;;;;;6311404;22;8724;-72
2023/05/03 08:39:23;;;;;;;;;27.75;26.25;;;;;;;;6311718;22;8736;-73
2023/05/03 08:41:49;;;;;;;;;25.75;25.00;;;;;;;;6311758;22;8765;-72
2023/05/03 08:44:18;;;;;;;;;27.00;27.00;;;;;;;;6311734;22;11451;-72
2023/05/03 08:46:43;;;;;;;;;36.75;31.75;;;;;;;;6312402;22;8732;-72
2023/05/03 08:49:09;;;;;;;;;34.00;30.50;;;;;;;;6312310;22;11545;-71
2023/05/03 08:51:38;;;;;;;;;24.00;24.00;;;;;;;;6313026;22;8751;-73
2023/05/03 08:54:03;;;;;;;;;26.50;26.50;;;;;;;;6312980;22;8755;-72
2023/05/03 08:56:32;;;;;;;;;29.50;27.25;;;;;;;;6312857;22;11462;-73
2023/05/03 08:59:03;;;;;;;;;24.50;23.50;;;;;;;;6312040;22;8786;-73
2023/05/03 09:01:29;;;;;;;;;22.50;22.25;;;;;;;;6313001;22;11440;-74
2023/05/03 09:03:54;;;;;;;;;20.75;18.25;;;;;;;;6313219;22;11437;-74
2023/05/03 09:06:20;;;;;;;;;31.75;28.50;;;;;;;;6312627;22;8732;-71
2023/05/03 09:08:45;;;;;;;;;23.25;21.50;;;;;;;;6285053;22;8837;-71
2023/05/03 09:11:23;;;;;;;;;21.25;21.25;;;;;;;;6312913;22;12183;-73
2023/05/03 09:13:50;;;;;;;;;22.25;20.00;;;;;;;;6313113;22;8727;-72
2023/05/03 09:16:28;;;;;;;;;24.00;19.25;;;;;;;;6312818;22;11463;-73
2023/05/03 09:18:57;;;;;;;;;20.25;16.75;;;;;;;;6312586;22;11482;-73
2023/05/03 09:21:22;;;;;;;;;20.75;20.75;;;;;;;;6310202;22;11449;-73
2023/05/03 09:23:47;;;;;;;;;17.50;17.50;;;;;;;;6312660;22;11453;-73
2023/05/03 09:26:26;;;;;;;;;18.00;15.75;;;;;;;;6311835;22;8760;-73
2023/05/03 09:28:51;;;;;;;;;20.50;19.75;;;;;;;;6312955;22;8775;-72
2023/05/03 09:31:16;;;;;;;;;23.25;22.25;;;;;;;;6312917;22;11460;-72
2023/05/03 09:33:42;;;;;;;;;21.75;19.25;;;;;;;;6313243;22;9529;-73
2023/05/03 09:36:08;;;;;;;;;19.50;19.50;;;;;;;;6311341;22;8865;-72
2023/05/03 09:38:35;;;;;;;;;22.00;19.75;;;;;;;;6311746;22;8870;-72
2023/05/03 09:41:00;;;;;;;;;16.50;16.50;;;;;;;;6284674;22;11375;-72
2023/05/03 09:43:26;;;;;;;;;19.75;18.75;;;;;;;;6284179;22;11398;-72
2023/05/03 09:45:51;;;;;;;;;18.25;17.50;;;;;;;;6312650;22;8861;-71
2023/05/03 09:48:17;;;;;;;;;23.50;16.25;;;;;;;;6311893;22;8764;-72
2023/05/03 09:50:42;;;;;;;;;21.50;17.75;;;;;;;;6312926;22;8704;-71
2023/05/03 09:53:08;;;;;;;;;19.25;16.50;;;;;;;;6312793;22;11201;-72
2023/05/03 09:55:37;;;;;;;;;16.25;16.25;;;;;;;;6312843;22;8768;-71
2023/05/03 09:58:06;;;;;;;;;23.50;20.00;;;;;;;;6284702;22;8849;-72
2023/05/03 10:00:38;;;;;;;;;18.00;16.25;;;;;;;;6312486;22;11361;-72
2023/05/03 10:03:11;;;;;;;;;18.50;17.75;;;;;;;;6312384;22;11601;-72
2023/05/03 10:05:44;;;;;;;;;14.75;13.50;;;;;;;;6312459;22;11808;-72
2023/05/03 10:08:11;;;;;;;;;18.75;17.00;;;;;;;;6312894;22;11083;-72
2023/05/03 10:10:38;;;;;;;;;17.00;14.00;;;;;;;;6312605;22;11963;-72
2023/05/03 10:13:04;;;;;;;;;16.75;16.50;;;;;;;;6312869;22;11070;-72
2023/05/03 10:15:30;;;;;;;;;16.25;15.00;;;;;;;;6312215;22;11215;-70
2023/05/03 10:17:56;;;;;;;;;15.25;13.50;;;;;;;;6311936;22;8854;-71
2023/05/03 10:20:34;;;;;;;;;16.50;15.00;;;;;;;;6312018;22;11349;-71
2023/05/03 10:23:10;;;;;;;;;16.00;15.75;;;;;;;;6312878;22;11372;-71
2023/05/03 10:25:36;;;;;;;;;14.50;14.25;;;;;;;;6312608;22;11483;-71
2023/05/03 10:28:02;;;;;;;;;12.75;10.00;;;;;;;;6312336;22;11206;-71
2023/05/03 10:30:28;;;;;;;;;14.25;12.00;;;;;;;;6284377;22;12137;-71
2023/05/03 10:32:53;;;;;;;;;14.25;13.50;;;;;;;;6311988;22;8794;-71
2023/05/03 10:35:19;;;;;;;;;10.50;10.50;;;;;;;;6312538;22;8732;-71
2023/05/03 10:37:47;;;;;;;;;14.00;13.00;;;;;;;;6284745;22;8791;-71
2023/05/03 10:40:14;;;;;;;;;15.00;15.00;;;;;;;;6312205;22;8786;-71
2023/05/03 10:42:42;;;;;;;;;11.75;10.50;;;;;;;;6312289;22;11191;-71
2023/05/03 10:45:08;;;;;;;;;16.00;15.50;;;;;;;;6312255;22;11085;-71
2023/05/03 10:47:34;;;;;;;;;13.75;13.75;;;;;;;;6311780;22;11745;-72
2023/05/03 10:50:14;;;;;;;;;14.50;14.50;;;;;;;;6312372;22;8752;-70
2023/05/03 10:52:39;;;;;;;;;14.25;12.50;;;;;;;;6312019;22;8827;-70
2023/05/03 10:55:08;;;;;;;;;12.50;10.75;;;;;;;;6312402;22;11037;-70
2023/05/03 10:57:34;;;;;;;;;10.25;7.75;;;;;;;;6311884;22;8805;-71
2023/05/03 11:00:01;;;;;;;;;12.50;12.25;;;;;;;;6312507;22;10902;-71
2023/05/03 11:02:31;;;;;;;;;14.00;13.00;;;;;;;;6312171;22;8717;-71
2023/05/03 11:04:58;;;;;;;;;11.25;10.75;;;;;;;;6312255;22;10863;-71
2023/05/03 11:07:24;;;;;;;;;13.75;8.75;;;;;;;;6312503;22;10996;-72
2023/05/03 11:09:50;;;;;;;;;16.50;15.50;;;;;;;;6312385;22;10926;-72
2023/05/03 11:12:16;;;;;;;;;13.25;11.50;;;;;;;;6312615;22;10868;-72
2023/05/03 11:14:41;;;;;;;;;14.50;12.25;;;;;;;;6311850;22;8764;-71
2023/05/03 11:17:07;;;;;;;;;13.25;13.00;;;;;;;;6311830;22;8843;-72
2023/05/03 11:19:32;;;;;;;;;14.75;11.50;;;;;;;;6311590;22;8826;-71
2023/05/03 11:21:57;;;;;;;;;11.75;10.00;;;;;;;;6312334;22;8831;-71
2023/05/03 11:24:22;;;;;;;;;13.25;11.75;;;;;;;;6284364;22;8821;-71
2023/05/03 11:26:48;;;;;;;;;15.50;12.75;;;;;;;;6312728;22;8737;-70
2023/05/03 11:29:13;;;;;;;;;13.50;13.00;;;;;;;;6312245;22;9501;-71
2023/05/03 11:31:41;;;;;;;;;15.50;13.25;;;;;;;;6311505;22;8794;-71
2023/05/03 11:34:07;;;;;;;;;12.00;12.00;;;;;;;;6312157;22;8725;-71
2023/05/03 11:36:33;;;;;;;;;14.00;13.25;;;;;;;;6312234;22;10934;-71
2023/05/03 11:38:58;;;;;;;;;10.50;10.50;;;;;;;;6312258;22;8780;-71
2023/05/03 11:41:24;;;;;;;;;11.50;10.00;;;;;;;;6312417;22;8724;-70
2023/05/03 11:43:49;;;;;;;;;10.25;9.00;;;;;;;;6311947;22;8755;-71
2023/05/03 11:46:22;;;;;;;;;10.00;9.25;;;;;;;;6312111;22;8816;-71
2023/05/03 11:48:47;;;;;;;;;13.25;12.25;;;;;;;;6312495;22;8696;-71
2023/05/03 11:51:13;;;;;;;;;11.25;9.75;;;;;;;;6312136;22;10839;-71
2023/05/03 11:53:42;;;;;;;;;10.75;10.75;;;;;;;;6312110;22;8740;-70
2023/05/03 11:56:10;;;;;;;;;11.50;10.00;;;;;;;;6311853;22;8713;-71
2023/05/03 11:58:47;;;;;;;;;11.75;10.00;;;;;;;;6311635;22;10780;-71
2023/05/03 12:01:13;;;;;;;;;13.00;10.75;;;;;;;;6311746;22;10895;-71
2023/05/03 12:03:38;;;;;;;;;9.50;9.50;;;;;;;;6311942;22;10981;-71
2023/05/03 12:06:04;;;;;;;;;10.50;9.75;;;;;;;;6312158;22;8728;-70
2023/05/03 12:08:31;;;;;;;;;9.75;8.00;;;;;;;;6312030;22;8743;-71
2023/05/03 12:10:56;;;;;;;;;15.25;13.25;;;;;;;;6311597;22;10661;-69
2023/05/03 12:13:31;;;;;;;;;11.50;11.50;;;;;;;;6311337;22;10800;-70
2023/05/03 12:15:59;;;;;;;;;10.00;8.75;;;;;;;;6311656;22;8708;-70
2023/05/03 12:18:24;;;;;;;;;8.00;8.00;;;;;;;;6311564;22;10778;-69
2023/05/03 12:20:54;;;;;;;;;11.75;9.50;;;;;;;;6311884;22;10910;-70
2023/05/03 12:23:20;;;;;;;;;11.75;10.00;;;;;;;;6311805;22;8763;-70
2023/05/03 12:25:46;;;;;;;;;10.50;10.00;;;;;;;;6311759;22;11464;-70
2023/05/03 12:28:11;;;;;;;;;11.00;9.25;;;;;;;;6311767;22;8748;-70
2023/05/03 12:30:36;;;;;;;;;16.00;14.25;;;;;;;;6311411;22;8778;-70
2023/05/03 12:33:01;;;;;;;;;12.25;11.75;;;;;;;;6311810;22;8772;-70
2023/05/03 12:35:26;;;;;;;;;8.25;8.25;;;;;;;;6311987;22;8732;-70
2023/05/03 12:37:51;;;;;;;;;11.50;10.75;;;;;;;;6311751;22;8764;-70
2023/05/03 12:40:18;;;;;;;;;12.75;11.75;;;;;;;;6311471;22;8752;-70
2023/05/03 12:42:44;;;;;;;;;8.50;8.00;;;;;;;;6312077;22;8720;-69
2023/05/03 12:45:10;;;;;;;;;11.50;11.50;;;;;;;;6311461;22;10961;-70
2023/05/03 12:47:35;;;;;;;;;12.50;11.50;;;;;;;;6284832;22;8814;-71
2023/05/03 12:50:02;;;;;;;;;14.25;12.00;;;;;;;;6311955;22;11072;-69
2023/05/03 12:52:27;;;;;;;;;12.00;9.00;;;;;;;;6311590;22;8815;-70
2023/05/03 12:54:52;;;;;;;;;10.75;9.50;;;;;;;;6311779;22;10902;-71
2023/05/03 12:57:17;;;;;;;;;12.75;12.75;;;;;;;;6311812;22;8783;-71
2023/05/03 12:59:43;;;;;;;;;13.00;12.00;;;;;;;;6311918;22;8729;-72
2023/05/03 13:02:11;;;;;;;;;7.75;7.75;;;;;;;;6312305;22;8737;-71
2023/05/03 13:04:36;;;;;;;;;16.00;12.00;;;;;;;;6311176;22;8724;-70
2023/05/03 13:07:01;;;;;;;;;13.25;12.75;;;;;;;;6311835;22;11693;-71
2023/05/03 13:09:27;;;;;;;;;13.25;12.00;;;;;;;;6311774;22;8771;-71
2023/05/03 13:11:53;;;;;;;;;14.00;11.75;;;;;;;;6311851;22;8833;-71
2023/05/03 13:14:19;;;;;;;;;6.50;6.50;;;;;;;;6311569;22;8728;-71
2023/05/03 13:16:45;;;;;;;;;15.00;14.00;;;;;;;;6311574;22;10868;-71
2023/05/03 13:19:10;;;;;;;;;10.00;9.00;;;;;;;;6312542;22;8767;-70
2023/05/03 13:21:36;;;;;;;;;11.50;11.50;;;;;;;;6311852;22;8771;-71
2023/05/03 13:24:01;;;;;;;;;12.75;10.00;;;;;;;;6311699;22;8752;-71
2023/05/03 13:26:26;;;;;;;;;9.00;7.25;;;;;;;;6311498;22;8767;-70
2023/05/03 13:28:51;;;;;;;;;10.25;10.25;;;;;;;;6312306;22;8768;-70
2023/05/03 13:31:17;;;;;;;;;10.25;9.25;;;;;;;;6311031;22;8815;-71
2023/05/03 13:33:43;;;;;;;;;13.50;11.25;;;;;;;;6312815;22;8740;-71
2023/05/03 13:36:08;;;;;;;;;11.75;11.75;;;;;;;;6313054;22;8748;-71
2023/05/03 13:38:34;;;;;;;;;12.00;12.00;;;;;;;;6312938;22;8779;-71
2023/05/03 13:40:59;;;;;;;;;8.00;7.00;;;;;;;;6284633;22;8845;-71
2023/05/03 13:43:24;;;;;;;;;10.25;10.25;;;;;;;;6312884;22;10745;-71
2023/05/03 13:45:51;;;;;;;;;9.50;8.75;;;;;;;;6285307;22;8764;-71
2023/05/03 13:48:16;;;;;;;;;9.75;8.50;;;;;;;;6312817;22;8817;-71
2023/05/03 13:50:42;;;;;;;;;9.50;9.50;;;;;;;;6313035;22;10743;-71
2023/05/03 13:53:07;;;;;;;;;10.50;9.50;;;;;;;;6312947;22;8772;-71
2023/05/03 13:55:32;;;;;;;;;5.50;4.50;;;;;;;;6312895;22;8752;-71
2023/05/03 13:57:57;;;;;;;;;8.25;7.25;;;;;;;;6312921;22;8798;-71
2023/05/03 14:00:22;;;;;;;;;8.00;7.75;;;;;;;;6285221;22;8803;-71
2023/05/03 14:02:48;;;;;;;;;11.25;10.00;;;;;;;;6312792;22;8756;-72
2023/05/03 14:05:13;;;;;;;;;11.25;10.00;;;;;;;;6312885;22;8878;-71
2023/05/03 14:07:38;;;;;;;;;7.25;7.00;;;;;;;;6312749;22;8771;-71
2023/05/03 14:10:05;;;;;;;;;7.25;6.75;;;;;;;;6312598;22;8745;-71
2023/05/03 14:12:35;;;;;;;;;7.00;7.00;;;;;;;;6284214;22;9387;-71
2023/05/03 14:15:03;;;;;;;;;10.00;9.00;;;;;;;;6284646;22;10519;-72
2023/05/03 14:17:29;;;;;;;;;11.00;9.00;;;;;;;;6311865;22;10735;-72
2023/05/03 14:19:54;;;;;;;;;7.50;7.25;;;;;;;;6312631;22;10624;-72
2023/05/03 14:22:20;;;;;;;;;10.75;9.00;;;;;;;;6312655;22;8847;-72